createdAt,value
2019-05-12T00:02:08.669Z,101931.82
2019-05-12T00:04:38.558Z,101930.27
2019-05-12T00:07:08.833Z,101929.72
2019-05-12T00:09:38.865Z,101935.88
2019-05-12T00:12:08.432Z,101944.00
2019-05-12T00:14:38.181Z,101942.00
2019-05-12T00:17:08.679Z,101947.88
2019-05-12T00:19:38.166Z,101947.08
2019-05-12T00:22:07.805Z,101958.17
2019-05-12T00:24:38.424Z,101960.31
2019-05-12T00:27:10.889Z,101966.33
2019-05-12T00:29:40.475Z,101968.98
2019-05-12T00:32:10.038Z,101973.16
2019-05-12T00:34:39.550Z,101975.30
2019-05-12T00:37:09.071Z,101977.66
2019-05-12T00:39:38.667Z,101985.61
2019-05-12T00:42:08.176Z,101985.27
2019-05-12T00:44:39.076Z,101996.48
2019-05-12T00:47:08.763Z,101994.03
2019-05-12T00:49:38.276Z,101992.89
2019-05-12T00:52:08.163Z,101995.43
2019-05-12T00:54:38.710Z,101996.76
2019-05-12T00:57:08.278Z,102006.18
2019-05-12T00:59:38.237Z,102015.25
2019-05-12T01:02:08.128Z,102011.48
2019-05-12T01:04:38.115Z,102023.16
2019-05-12T01:07:08.710Z,102020.45
2019-05-12T01:09:38.601Z,102032.11
2019-05-12T01:12:08.203Z,102035.31
2019-05-12T01:14:38.382Z,102036.55
2019-05-12T01:17:08.493Z,102043.95
2019-05-12T01:19:40.566Z,102049.48
2019-05-12T01:22:10.347Z,102054.82
2019-05-12T01:24:39.893Z,102053.55
2019-05-12T01:27:28.831Z,102055.84
2019-05-12T01:29:58.329Z,102052.38
2019-05-12T01:32:32.785Z,102062.98
2019-05-12T01:35:02.321Z,102068.88
2019-05-12T01:37:31.837Z,102071.44
2019-05-12T01:40:01.330Z,102077.48
2019-05-12T01:42:30.838Z,102074.14
2019-05-12T01:45:00.323Z,102076.92
2019-05-12T01:47:29.833Z,102082.97
2019-05-12T01:49:59.387Z,102089.88
2019-05-12T01:52:28.854Z,102096.23
2019-05-12T01:54:59.000Z,102096.15
2019-05-12T01:57:29.623Z,102104.65
2019-05-12T01:59:59.158Z,102097.05
2019-05-12T02:02:28.722Z,102097.83
2019-05-12T02:05:08.278Z,102099.90
2019-05-12T02:07:58.409Z,102110.70
2019-05-12T02:10:28.834Z,102113.56
2019-05-12T02:12:59.482Z,102123.66
2019-05-12T02:15:29.255Z,102123.69
2019-05-12T02:17:59.162Z,102131.06
2019-05-12T02:20:29.692Z,102132.32
2019-05-12T02:22:59.205Z,102135.09
2019-05-12T02:25:29.064Z,102135.42
2019-05-12T02:27:59.557Z,102141.69
2019-05-12T02:30:30.332Z,102141.69
2019-05-12T02:33:00.242Z,102137.41
2019-05-12T02:35:29.725Z,102137.26
2019-05-12T02:37:59.220Z,102145.37
2019-05-12T02:40:28.789Z,102148.55
2019-05-12T02:42:58.281Z,102151.55
2019-05-12T02:45:27.778Z,102156.17
2019-05-12T02:47:57.284Z,102158.47
2019-05-12T02:50:37.591Z,102155.37
2019-05-12T02:53:07.901Z,102154.59
2019-05-12T02:55:37.747Z,102166.09
2019-05-12T02:58:07.321Z,102165.63
2019-05-12T03:00:37.197Z,102166.34
2019-05-12T03:03:08.438Z,102170.02
2019-05-12T03:05:39.097Z,102169.53
2019-05-12T03:08:08.602Z,102179.55
2019-05-12T03:10:38.101Z,102182.30
2019-05-12T03:13:07.601Z,102187.00
2019-05-12T03:15:37.760Z,102183.00
2019-05-12T03:18:07.659Z,102181.91
2019-05-12T03:20:37.221Z,102187.30
2019-05-12T03:23:07.141Z,102195.59
2019-05-12T03:25:37.330Z,102192.87
2019-05-12T03:28:09.282Z,102200.59
2019-05-12T03:30:40.734Z,102204.95
2019-05-12T03:33:11.943Z,102202.56
2019-05-12T03:35:44.215Z,102202.89
2019-05-12T03:38:14.853Z,102211.45
2019-05-12T03:40:45.078Z,102222.98
2019-05-12T03:43:14.887Z,102230.13
2019-05-12T03:45:45.460Z,102233.85
2019-05-12T03:48:16.048Z,102233.46
2019-05-12T03:50:46.246Z,102232.58
2019-05-12T03:53:16.257Z,102243.20
2019-05-12T03:55:47.476Z,102248.10
2019-05-12T03:58:17.203Z,102254.84
2019-05-12T04:00:46.703Z,102261.53
2019-05-12T04:03:16.204Z,102263.02
2019-05-12T04:05:45.766Z,102261.27
2019-05-12T04:08:16.045Z,102273.70
2019-05-12T04:10:46.159Z,102271.98
2019-05-12T04:13:15.887Z,102274.55
2019-05-12T04:15:46.047Z,102276.73
2019-05-12T04:18:16.626Z,102287.30
2019-05-12T04:20:46.305Z,102291.06
2019-05-12T04:23:15.989Z,102284.16
2019-05-12T04:25:52.280Z,102300.06
2019-05-12T04:28:16.890Z,102304.37
2019-05-12T04:30:46.395Z,102304.61
2019-05-12T04:33:16.177Z,102310.91
2019-05-12T04:35:45.854Z,102305.28
2019-05-12T04:38:15.522Z,102304.73
2019-05-12T04:40:45.934Z,102314.45
2019-05-12T04:43:16.488Z,102311.52
2019-05-12T04:45:45.996Z,102314.39
2019-05-12T04:48:20.871Z,102325.05
2019-05-12T04:50:46.798Z,102318.79
2019-05-12T04:53:16.256Z,102315.13
2019-05-12T04:55:45.750Z,102318.79
2019-05-12T04:58:16.066Z,102325.05
2019-05-12T05:00:45.907Z,102329.02
2019-05-12T05:03:15.415Z,102331.00
2019-05-12T05:05:44.947Z,102337.02
2019-05-12T05:08:19.244Z,102334.25
2019-05-12T05:10:45.600Z,102334.25
2019-05-12T05:13:15.354Z,102338.13
2019-05-12T05:15:45.137Z,102344.36
2019-05-12T05:18:14.620Z,102351.53
2019-05-12T05:20:44.117Z,102354.56
2019-05-12T05:23:14.357Z,102356.14
2019-05-12T05:25:43.942Z,102362.79
2019-05-12T05:28:14.548Z,102362.17
2019-05-12T05:30:44.477Z,102368.28
2019-05-12T05:33:14.611Z,102374.84
2019-05-12T05:35:45.393Z,102383.76
2019-05-12T05:38:20.544Z,102390.58
2019-05-12T05:40:46.164Z,102383.84
2019-05-12T05:43:18.683Z,102384.69
2019-05-12T05:45:46.896Z,102393.66
2019-05-12T05:48:16.392Z,102396.95
2019-05-12T05:50:45.925Z,102395.45
2019-05-12T05:53:19.571Z,102402.69
2019-05-12T05:55:50.276Z,102400.27
2019-05-12T05:58:17.870Z,102401.08
2019-05-12T06:00:47.541Z,102404.23
2019-05-12T06:03:22.933Z,102403.06
2019-05-12T06:05:48.253Z,102410.80
2019-05-12T06:08:20.846Z,102415.31
2019-05-12T06:10:48.958Z,102419.91
2019-05-12T06:13:21.191Z,102422.13
2019-05-12T06:15:49.669Z,102411.70
2019-05-12T06:18:19.173Z,102415.86
2019-05-12T06:20:48.696Z,102423.26
2019-05-12T06:23:18.208Z,102421.97
2019-05-12T06:25:51.577Z,102423.98
2019-05-12T06:28:18.894Z,102429.12
2019-05-12T06:30:50.221Z,102433.29
2019-05-12T06:33:24.124Z,102441.89
2019-05-12T06:35:50.820Z,102432.29
2019-05-12T06:38:20.329Z,102430.55
2019-05-12T06:40:49.830Z,102442.03
2019-05-12T06:43:19.333Z,102439.06
2019-05-12T06:45:48.926Z,102447.77
2019-05-12T06:48:19.386Z,102447.77
2019-05-12T06:50:49.622Z,102453.37
2019-05-12T06:53:20.354Z,102456.11
2019-05-12T06:55:50.442Z,102468.88
2019-05-12T06:58:26.272Z,102467.70
2019-05-12T07:00:51.160Z,102471.98
2019-05-12T07:03:25.782Z,102472.01
2019-05-12T07:05:53.352Z,102473.80
2019-05-12T07:08:27.443Z,102477.94
2019-05-12T07:11:01.919Z,102481.66
2019-05-12T07:13:29.406Z,102482.56
2019-05-12T07:15:58.949Z,102489.16
2019-05-12T07:18:32.398Z,102500.34
2019-05-12T07:20:59.663Z,102496.72
2019-05-12T07:23:30.131Z,102499.81
2019-05-12T07:26:06.733Z,102499.00
2019-05-12T07:28:36.220Z,102497.16
2019-05-12T07:31:03.925Z,102504.04
2019-05-12T07:33:41.401Z,102502.78
2019-05-12T07:36:06.325Z,102513.00
2019-05-12T07:38:37.738Z,102509.95
2019-05-12T07:41:10.701Z,102507.28
2019-05-12T07:43:38.879Z,102517.91
2019-05-12T07:46:08.370Z,102514.75
2019-05-12T07:48:40.383Z,102517.33
2019-05-12T07:51:09.096Z,102522.55
2019-05-12T07:53:38.621Z,102519.62
2019-05-12T07:56:08.140Z,102513.08
2019-05-12T07:58:40.992Z,102513.27
2019-05-12T08:01:08.848Z,102520.09
2019-05-12T08:03:38.448Z,102515.63
2019-05-12T08:06:08.810Z,102519.16
2019-05-12T08:08:41.858Z,102496.47
2019-05-12T08:11:09.525Z,102514.20
2019-05-12T08:13:40.969Z,102520.73
2019-05-12T08:16:10.286Z,102522.79
2019-05-12T08:18:41.062Z,102529.38
2019-05-12T08:21:10.685Z,102524.73
2019-05-12T08:23:40.185Z,102525.13
2019-05-12T08:26:16.256Z,102523.38
2019-05-12T08:28:40.901Z,102517.53
2019-05-12T08:31:10.395Z,102525.53
2019-05-12T08:33:40.390Z,102531.17
2019-05-12T08:36:12.949Z,102529.98
2019-05-12T08:38:41.104Z,102528.95
2019-05-12T08:41:10.614Z,102531.81
2019-05-12T08:43:45.631Z,102533.55
2019-05-12T08:46:12.798Z,102536.56
2019-05-12T08:48:44.645Z,102541.22
2019-05-12T08:51:16.983Z,102538.25
2019-05-12T08:53:45.086Z,102531.39
2019-05-12T08:56:19.295Z,102535.37
2019-05-12T08:58:51.023Z,102530.47
2019-05-12T09:01:20.385Z,102536.90
2019-05-12T09:03:48.661Z,102547.96
2019-05-12T09:06:19.814Z,102550.16
2019-05-12T09:08:49.707Z,102542.81
2019-05-12T09:11:19.224Z,102541.30
2019-05-12T09:13:52.760Z,102541.83
2019-05-12T09:16:19.983Z,102546.51
2019-05-12T09:18:49.488Z,102556.16
2019-05-12T09:21:25.328Z,102550.44
2019-05-12T09:23:53.343Z,102546.72
2019-05-12T09:26:43.310Z,102551.81
2019-05-12T09:29:13.954Z,102551.85
2019-05-12T09:31:44.079Z,102560.36
2019-05-12T09:34:16.428Z,102554.97
2019-05-12T09:36:44.938Z,102559.42
2019-05-12T09:39:14.445Z,102556.02
2019-05-12T09:41:50.566Z,102550.40
2019-05-12T09:44:15.149Z,102558.13
2019-05-12T09:46:44.660Z,102557.94
2019-05-12T09:49:14.337Z,102561.27
2019-05-12T09:51:46.035Z,102568.69
2019-05-12T09:54:15.602Z,102565.83
2019-05-12T09:56:49.868Z,102566.81
2019-05-12T09:59:22.637Z,102573.11
2019-05-12T10:01:47.520Z,102557.63
2019-05-12T10:04:19.590Z,102571.88
2019-05-12T10:06:48.296Z,102547.25
2019-05-12T10:09:19.783Z,102577.45
2019-05-12T10:11:53.950Z,102583.55
2019-05-12T10:14:20.335Z,102582.00
2019-05-12T10:16:49.993Z,102583.88
2019-05-12T10:19:19.472Z,102577.95
2019-05-12T10:21:54.006Z,102577.91
2019-05-12T10:24:20.170Z,102577.25
2019-05-12T10:26:50.686Z,102573.98
2019-05-12T10:29:20.951Z,102579.70
2019-05-12T10:31:50.595Z,102578.75
2019-05-12T10:34:20.366Z,102575.22
2019-05-12T10:36:50.715Z,102576.78
2019-05-12T10:39:21.437Z,102585.31
2019-05-12T10:41:51.056Z,102579.84
2019-05-12T10:44:20.551Z,102582.68
2019-05-12T10:46:53.797Z,102588.61
2019-05-12T10:49:23.436Z,102588.61
2019-05-12T10:51:53.959Z,102591.82
2019-05-12T10:54:24.244Z,102585.35
2019-05-12T10:56:54.732Z,102588.47
2019-05-12T10:59:32.279Z,102581.28
2019-05-12T11:01:55.624Z,102586.28
2019-05-12T11:04:35.674Z,102595.33
2019-05-12T11:06:56.438Z,102596.58
2019-05-12T11:09:30.188Z,102593.67
2019-05-12T11:11:58.031Z,102598.59
2019-05-12T11:14:30.485Z,102563.52
2019-05-12T11:17:02.275Z,102601.49
2019-05-12T11:19:33.758Z,102600.66
2019-05-12T11:22:03.784Z,102607.94
2019-05-12T11:24:33.759Z,102611.70
2019-05-12T11:27:04.117Z,102615.17
2019-05-12T11:29:45.777Z,102611.81
2019-05-12T11:32:05.018Z,102596.82
2019-05-12T11:34:34.690Z,102607.86
2019-05-12T11:37:04.319Z,102617.45
2019-05-12T11:39:37.182Z,102619.93
2019-05-12T11:42:06.036Z,102627.75
2019-05-12T11:44:35.593Z,102622.62
2019-05-12T11:47:05.105Z,102627.08
2019-05-12T11:49:34.632Z,102631.34
2019-05-12T11:52:09.184Z,102633.89
2019-05-12T11:54:36.011Z,102633.25
2019-05-12T11:57:05.528Z,102615.42
2019-05-12T11:59:35.029Z,102624.45
2019-05-12T12:02:04.531Z,102625.40
2019-05-12T12:04:46.158Z,102631.47
2019-05-12T12:07:16.835Z,102633.87
2019-05-12T12:09:49.322Z,102638.89
2019-05-12T12:12:17.621Z,102637.30
2019-05-12T12:14:50.310Z,102577.62
2019-05-12T12:17:22.837Z,102630.31
2019-05-12T12:19:49.709Z,102625.37
2019-05-12T12:22:20.251Z,102627.37
2019-05-12T12:24:50.434Z,102619.69
2019-05-12T12:27:19.957Z,102634.39
2019-05-12T12:29:49.474Z,102635.40
2019-05-12T12:32:20.431Z,102643.00
2019-05-12T12:34:50.102Z,102638.11
2019-05-12T12:37:24.108Z,102640.48
2019-05-12T12:39:50.852Z,102638.95
2019-05-12T12:42:20.364Z,102643.53
2019-05-12T12:44:53.530Z,102647.39
2019-05-12T12:47:23.786Z,102652.21
2019-05-12T12:49:53.412Z,102649.37
2019-05-12T12:52:24.358Z,102651.66
2019-05-12T12:54:54.355Z,102652.15
2019-05-12T12:57:24.025Z,102657.22
2019-05-12T12:59:53.520Z,102661.93
2019-05-12T13:02:24.728Z,102656.27
2019-05-12T13:04:54.407Z,102667.36
2019-05-12T13:07:24.197Z,102663.63
2019-05-12T13:09:55.010Z,102670.94
2019-05-12T13:12:24.924Z,102672.36
2019-05-12T13:14:54.413Z,102677.00
2019-05-12T13:17:29.050Z,102691.00
2019-05-12T13:19:58.686Z,102687.14
2019-05-12T13:22:29.607Z,102686.21
2019-05-12T13:25:04.343Z,102688.78
2019-05-12T13:27:30.265Z,102681.85
2019-05-12T13:30:02.175Z,102703.10
2019-05-12T13:32:37.543Z,102704.26
2019-05-12T13:35:04.221Z,102709.09
2019-05-12T13:37:33.905Z,102707.85
2019-05-12T13:40:03.435Z,102706.67
2019-05-12T13:42:35.911Z,102712.94
2019-05-12T13:45:04.565Z,102710.02
2019-05-12T13:47:39.509Z,102709.44
2019-05-12T13:50:06.041Z,102708.95
2019-05-12T13:52:35.565Z,102714.45
2019-05-12T13:55:07.577Z,102716.36
2019-05-12T13:57:36.568Z,102706.96
2019-05-12T14:00:10.629Z,102707.91
2019-05-12T14:02:37.428Z,102720.20
2019-05-12T14:05:11.470Z,102720.27
2019-05-12T14:07:38.297Z,102728.11
2019-05-12T14:10:09.762Z,102721.06
2019-05-12T14:12:39.269Z,102709.36
2019-05-12T14:15:09.456Z,102718.52
2019-05-12T14:17:40.441Z,102720.46
2019-05-12T14:20:15.809Z,102721.52
2019-05-12T14:22:42.007Z,102724.73
2019-05-12T14:25:15.130Z,102717.81
2019-05-12T14:27:44.497Z,102717.42
2019-05-12T14:30:14.793Z,102722.35
2019-05-12T14:32:44.319Z,102730.33
2019-05-12T14:35:13.968Z,102735.09
2019-05-12T14:37:45.855Z,102747.97
2019-05-12T14:40:15.731Z,102738.39
2019-05-12T14:42:45.238Z,102742.70
2019-05-12T14:45:19.625Z,102741.61
2019-05-12T14:47:45.966Z,102739.42
2019-05-12T14:50:15.464Z,102742.89
2019-05-12T14:52:44.992Z,102738.70
2019-05-12T14:55:14.499Z,102732.55
2019-05-12T14:57:44.003Z,102727.40
2019-05-12T15:00:21.063Z,102735.75
2019-05-12T15:02:47.008Z,102726.72
2019-05-12T15:05:16.578Z,102740.20
2019-05-12T15:07:51.294Z,102750.38
2019-05-12T15:10:17.639Z,102747.66
2019-05-12T15:12:47.182Z,102739.89
2019-05-12T15:15:20.636Z,102743.04
2019-05-12T15:17:48.004Z,102742.19
2019-05-12T15:20:17.934Z,102744.53
2019-05-12T15:22:51.790Z,102741.74
2019-05-12T15:25:19.037Z,102738.58
2019-05-12T15:27:48.635Z,102744.36
2019-05-12T15:30:23.287Z,102744.70
2019-05-12T15:32:49.411Z,102744.24
2019-05-12T15:35:18.947Z,102743.80
2019-05-12T15:37:51.781Z,102746.67
2019-05-12T15:40:19.831Z,102755.44
2019-05-12T15:42:49.335Z,102752.56
2019-05-12T15:45:18.864Z,102744.30
2019-05-12T15:47:49.337Z,102747.38
2019-05-12T15:50:18.906Z,102754.22
2019-05-12T15:52:48.440Z,102751.42
2019-05-12T15:55:18.619Z,102751.58
2019-05-12T15:57:48.239Z,102758.50
2019-05-12T16:00:17.757Z,102759.09
2019-05-12T16:02:47.271Z,102771.73
2019-05-12T16:05:20.065Z,102777.94
2019-05-12T16:07:48.970Z,102779.66
2019-05-12T16:10:18.656Z,102780.42
2019-05-12T16:12:48.156Z,102783.94
2019-05-12T16:15:19.393Z,102785.87
2019-05-12T16:17:50.173Z,102782.52
2019-05-12T16:20:19.707Z,102789.13
2019-05-12T16:22:49.213Z,102793.41
2019-05-12T16:25:20.638Z,102801.66
2019-05-12T16:27:50.048Z,102799.77
2019-05-12T16:30:20.452Z,102808.09
2019-05-12T16:32:50.869Z,102808.19
2019-05-12T16:35:26.395Z,102805.92
2019-05-12T16:37:53.428Z,102809.59
2019-05-12T16:40:23.983Z,102749.41
2019-05-12T16:42:59.341Z,102810.67
2019-05-12T16:45:24.679Z,102814.37
2019-05-12T16:47:54.185Z,102816.67
2019-05-12T16:50:27.732Z,102820.05
2019-05-12T16:52:55.963Z,102822.98
2019-05-12T16:55:25.463Z,102827.91
2019-05-12T16:57:56.169Z,102826.75
2019-05-12T17:00:25.835Z,102832.60
2019-05-12T17:02:57.990Z,102827.14
2019-05-12T17:05:26.538Z,102830.36
2019-05-12T17:07:57.513Z,102839.57
2019-05-12T17:10:27.280Z,102838.39
2019-05-12T17:12:57.179Z,102839.67
2019-05-12T17:15:27.299Z,102850.19
2019-05-12T17:18:01.578Z,102846.66
2019-05-12T17:20:30.091Z,102849.12
2019-05-12T17:23:00.432Z,102851.58
2019-05-12T17:25:31.110Z,102860.31
2019-05-12T17:28:03.887Z,102864.05
2019-05-12T17:30:34.438Z,102864.05
2019-05-12T17:33:05.191Z,102871.27
2019-05-12T17:35:35.306Z,102875.41
2019-05-12T17:38:04.940Z,102865.81
2019-05-12T17:40:34.464Z,102865.14
2019-05-12T17:43:10.000Z,102869.44
2019-05-12T17:45:35.323Z,102873.18
2019-05-12T17:48:07.721Z,102876.11
2019-05-12T17:50:40.393Z,102882.05
2019-05-12T17:53:07.341Z,102882.23
2019-05-12T17:55:42.672Z,102890.93
2019-05-12T17:58:08.076Z,102894.67
2019-05-12T18:00:41.321Z,102894.05
2019-05-12T18:03:20.630Z,102897.80
2019-05-12T18:05:42.404Z,102910.88
2019-05-12T18:08:14.266Z,102907.39
2019-05-12T18:10:43.770Z,102913.63
2019-05-12T18:13:15.021Z,102916.92
2019-05-12T18:15:44.794Z,102917.44
2019-05-12T18:18:17.262Z,102931.73
2019-05-12T18:20:45.518Z,102926.19
2019-05-12T18:23:19.918Z,102927.43
2019-05-12T18:25:46.281Z,102936.20
2019-05-12T18:28:15.798Z,102941.41
2019-05-12T18:30:45.312Z,102941.61
2019-05-12T18:33:28.363Z,102948.02
2019-05-12T18:35:46.061Z,102952.95
2019-05-12T18:38:21.557Z,102956.54
2019-05-12T18:40:46.844Z,102961.19
2019-05-12T18:43:16.357Z,102959.84
2019-05-12T18:45:48.629Z,102968.14
2019-05-12T18:48:22.061Z,102971.98
2019-05-12T18:50:48.257Z,102973.00
2019-05-12T18:53:27.725Z,102971.73
2019-05-12T18:55:48.990Z,102978.49
2019-05-12T18:58:21.635Z,102978.16
2019-05-12T19:00:49.719Z,102979.31
2019-05-12T19:03:20.757Z,102983.34
2019-05-12T19:05:50.420Z,102980.22
2019-05-12T19:08:20.516Z,102978.20
2019-05-12T19:10:52.922Z,102986.10
2019-05-12T19:13:22.524Z,102987.28
2019-05-12T19:15:52.735Z,102992.41
2019-05-12T19:18:24.343Z,102994.33
2019-05-12T19:20:54.957Z,102998.81
2019-05-12T19:23:26.895Z,103006.77
2019-05-12T19:25:55.874Z,103001.95
2019-05-12T19:28:25.379Z,103008.94
2019-05-12T19:31:01.068Z,103020.07
2019-05-12T19:33:26.786Z,103020.47
2019-05-12T19:36:04.333Z,103027.58
2019-05-12T19:38:28.067Z,103038.30
2019-05-12T19:41:00.785Z,103026.03
2019-05-12T19:43:29.332Z,103028.59
2019-05-12T19:46:03.351Z,103035.00
2019-05-12T19:48:35.191Z,103032.52
2019-05-12T19:51:15.944Z,103034.69
2019-05-12T19:53:33.230Z,103039.50
2019-05-12T19:56:03.864Z,103042.80
2019-05-12T19:58:34.089Z,103046.08
2019-05-12T20:01:03.805Z,103051.77
2019-05-12T20:03:33.640Z,103056.66
2019-05-12T20:06:03.904Z,103054.50
2019-05-12T20:08:33.937Z,103058.97
2019-05-12T20:11:03.814Z,103066.82
2019-05-12T20:13:40.035Z,103069.21
2019-05-12T20:16:11.624Z,103070.98
2019-05-12T20:18:42.727Z,103070.23
2019-05-12T20:21:10.265Z,103077.47
2019-05-12T20:23:39.799Z,103080.91
2019-05-12T20:26:09.326Z,103077.80
2019-05-12T20:28:42.161Z,103080.91
2019-05-12T20:31:10.112Z,103081.48
2019-05-12T20:33:39.636Z,103086.77
2019-05-12T20:36:09.219Z,103084.75
2019-05-12T20:38:40.661Z,103084.97
2019-05-12T20:41:10.916Z,103086.34
2019-05-12T20:43:44.162Z,103089.52
2019-05-12T20:46:21.532Z,103089.76
2019-05-12T20:48:44.637Z,103097.04
2019-05-12T20:51:18.704Z,103088.17
2019-05-12T20:53:45.651Z,103092.80
2019-05-12T20:56:20.002Z,103083.23
2019-05-12T20:58:46.685Z,103104.27
2019-05-12T21:01:20.292Z,103098.33
2019-05-12T21:03:50.840Z,103106.17
2019-05-12T21:06:18.697Z,103110.95
2019-05-12T21:08:53.667Z,103113.42
2019-05-12T21:11:19.378Z,103112.05
2019-05-12T21:13:49.925Z,103113.20
2019-05-12T21:16:25.353Z,103116.94
2019-05-12T21:19:05.641Z,103119.68
2019-05-12T21:21:27.674Z,103125.13
2019-05-12T21:23:54.355Z,103125.05
2019-05-12T21:26:28.569Z,103127.39
2019-05-12T21:28:55.613Z,103133.36
2019-05-12T21:31:28.066Z,103146.23
2019-05-12T21:33:56.423Z,103131.19
2019-05-12T21:36:27.457Z,103137.09
2019-05-12T21:39:04.402Z,103145.31
2019-05-12T21:41:28.755Z,103145.99
2019-05-12T21:44:00.150Z,103161.87
2019-05-12T21:46:29.557Z,103160.67
2019-05-12T21:49:09.244Z,103165.09
2019-05-12T21:51:34.038Z,103165.91
2019-05-12T21:54:04.013Z,103164.15
2019-05-12T21:56:37.925Z,103167.86
2019-05-12T21:59:06.065Z,103163.77
2019-05-12T22:01:43.269Z,103171.23
2019-05-12T22:04:06.924Z,103167.05
2019-05-12T22:06:36.447Z,103169.44
2019-05-12T22:09:07.211Z,103169.73
2019-05-12T22:11:43.957Z,103167.63
2019-05-12T22:14:07.909Z,103172.84
2019-05-12T22:16:43.684Z,103168.83
2019-05-12T22:19:10.249Z,103169.23
2019-05-12T22:21:47.588Z,103174.27
2019-05-12T22:24:10.955Z,103171.12
2019-05-12T22:26:44.176Z,103172.52
2019-05-12T22:29:13.540Z,103170.30
2019-05-12T22:31:44.745Z,103181.27
2019-05-12T22:34:14.084Z,103176.54
2019-05-12T22:36:45.410Z,103180.09
2019-05-12T22:39:14.801Z,103179.52
2019-05-12T22:41:44.312Z,103185.13
2019-05-12T22:44:18.710Z,103180.02
2019-05-12T22:46:45.030Z,103181.30
2019-05-12T22:49:16.822Z,103185.80
2019-05-12T22:51:46.591Z,103190.30
2019-05-12T22:54:16.322Z,103189.80
2019-05-12T22:56:49.620Z,103188.63
2019-05-12T22:59:17.997Z,103196.49
2019-05-12T23:01:47.508Z,103193.16
2019-05-12T23:04:17.009Z,103195.39
2019-05-12T23:06:46.935Z,103201.70
2019-05-12T23:09:19.521Z,103197.56
2019-05-12T23:11:47.691Z,103205.53
2019-05-12T23:14:22.208Z,103198.47
2019-05-12T23:16:49.456Z,103205.23
2019-05-12T23:19:18.943Z,103201.71
2019-05-12T23:21:49.361Z,103203.17
2019-05-12T23:24:19.638Z,103210.17
2019-05-12T23:26:49.151Z,103206.80
2019-05-12T23:29:20.538Z,103206.92
2019-05-12T23:31:49.851Z,103211.91
2019-05-12T23:34:19.358Z,103204.44
2019-05-12T23:36:50.370Z,103210.22
2019-05-12T23:39:20.055Z,103213.27
2019-05-12T23:41:49.559Z,103205.26
2019-05-12T23:44:19.053Z,103205.63
2019-05-12T23:46:48.535Z,103208.56
2019-05-12T23:49:18.028Z,103206.70
2019-05-12T23:51:47.504Z,103206.62
2019-05-12T23:54:16.988Z,103205.32
2019-05-12T23:56:46.479Z,103200.40
2019-05-12T23:59:15.992Z,103196.39
